Terminal Aerodrome Forecast
Issued by NWS

Home | Current Version | Previous Version | Text Only | Print | Product List | Glossary On
Versions: 1 2 3 4 5 6 7 8 9 10 11 12 13 14 15 16 17 18
000
FTUS44 KCRP 281720
TAFALI
TAF
KALI 281720Z 2818/2918 18006KT P6SM FEW045
     FM282200 13012KT P6SM SCT045
     FM290100 VRB05KT P6SM SCT250
      TEMPO 2911/2913 5SM BR FEW025=

USA.gov is the U.S. government's official web portal to all federal, state and local government web resources and services.